sensor_id;sensor_type;location;lat;lon;timestamp;P1;P2;P0
71794;PMS7003;59641;45.188;5.712;2023-02-20T00:01:24;7.75;7.75;6.00
71794;PMS7003;59641;45.188;5.712;2023-02-20T00:03:50;11.50;10.00;8.75
71794;PMS7003;59641;45.188;5.712;2023-02-20T00:06:15;13.25;12.50;9.50
71794;PMS7003;59641;45.188;5.712;2023-02-20T00:08:41;13.25;12.25;9.75
71794;PMS7003;59641;45.188;5.712;2023-02-20T00:11:06;12.75;11.75;10.00
71794;PMS7003;59641;45.188;5.712;2023-02-20T00:13:32;16.50;16.50;12.00
71794;PMS7003;59641;45.188;5.712;2023-02-20T00:15:57;17.25;14.75;10.50
71794;PMS7003;59641;45.188;5.712;2023-02-20T00:18:22;15.25;14.50;12.00
71794;PMS7003;59641;45.188;5.712;2023-02-20T00:20:48;16.00;16.00;11.50
71794;PMS7003;59641;45.188;5.712;2023-02-20T00:23:13;11.00;11.00;10.25
71794;PMS7003;59641;45.188;5.712;2023-02-20T00:25:39;14.00;12.50;9.50
71794;PMS7003;59641;45.188;5.712;2023-02-20T00:28:04;12.25;11.50;9.50
71794;PMS7003;59641;45.188;5.712;2023-02-20T00:30:30;12.50;12.00;9.75
71794;PMS7003;59641;45.188;5.712;2023-02-20T00:32:55;12.75;12.25;10.25
71794;PMS7003;59641;45.188;5.712;2023-02-20T00:35:22;9.00;9.00;7.25
71794;PMS7003;59641;45.188;5.712;2023-02-20T00:37:48;8.20;8.20;6.60
71794;PMS7003;59641;45.188;5.712;2023-02-20T00:40:15;8.75;8.75;7.00
71794;PMS7003;59641;45.188;5.712;2023-02-20T00:42:41;9.00;9.00;7.00
71794;PMS7003;59641;45.188;5.712;2023-02-20T00:45:07;8.50;8.25;7.25
71794;PMS7003;59641;45.188;5.712;2023-02-20T00:47:33;9.75;9.00;6.00
71794;PMS7003;59641;45.188;5.712;2023-02-20T00:49:58;6.50;5.25;4.50
71794;PMS7003;59641;45.188;5.712;2023-02-20T00:52:24;8.00;8.00;7.00
71794;PMS7003;59641;45.188;5.712;2023-02-20T00:54:50;8.50;8.50;6.25
71794;PMS7003;59641;45.188;5.712;2023-02-20T00:57:15;7.75;7.25;5.00
71794;PMS7003;59641;45.188;5.712;2023-02-20T00:59:40;7.00;7.00;6.00
71794;PMS7003;59641;45.188;5.712;2023-02-20T01:02:06;6.50;5.50;4.50
71794;PMS7003;59641;45.188;5.712;2023-02-20T01:04:32;7.25;7.25;6.25
71794;PMS7003;59641;45.188;5.712;2023-02-20T01:06:57;8.50;8.50;6.00
71794;PMS7003;59641;45.188;5.712;2023-02-20T01:09:22;6.75;5.75;4.50
71794;PMS7003;59641;45.188;5.712;2023-02-20T01:11:48;8.00;8.00;6.50
71794;PMS7003;59641;45.188;5.712;2023-02-20T01:14:14;9.25;9.25;6.00
71794;PMS7003;59641;45.188;5.712;2023-02-20T01:16:43;6.50;5.50;5.50
71794;PMS7003;59641;45.188;5.712;2023-02-20T01:19:09;8.20;7.00;6.60
71794;PMS7003;59641;45.188;5.712;2023-02-20T01:21:35;9.25;9.25;8.00
71794;PMS7003;59641;45.188;5.712;2023-02-20T01:24:00;11.50;11.50;7.75
71794;PMS7003;59641;45.188;5.712;2023-02-20T01:26:25;13.25;12.50;9.75
71794;PMS7003;59641;45.188;5.712;2023-02-20T01:28:51;16.00;16.00;12.75
71794;PMS7003;59641;45.188;5.712;2023-02-20T01:31:16;16.75;16.25;12.50
71794;PMS7003;59641;45.188;5.712;2023-02-20T01:33:42;13.75;13.75;10.50
71794;PMS7003;59641;45.188;5.712;2023-02-20T01:36:09;14.00;14.00;11.50
71794;PMS7003;59641;45.188;5.712;2023-02-20T01:38:35;17.25;17.25;14.25
71794;PMS7003;59641;45.188;5.712;2023-02-20T01:41:00;17.25;16.25;13.00
71794;PMS7003;59641;45.188;5.712;2023-02-20T01:43:26;17.00;17.00;13.50
71794;PMS7003;59641;45.188;5.712;2023-02-20T01:45:51;16.75;16.75;12.50
71794;PMS7003;59641;45.188;5.712;2023-02-20T01:48:21;18.50;18.00;14.25
71794;PMS7003;59641;45.188;5.712;2023-02-20T01:50:49;16.25;15.75;12.50
71794;PMS7003;59641;45.188;5.712;2023-02-20T01:53:22;15.00;14.50;11.50
71794;PMS7003;59641;45.188;5.712;2023-02-20T01:56:02;17.00;17.00;13.00
71794;PMS7003;59641;45.188;5.712;2023-02-20T01:58:35;13.50;13.50;11.00
71794;PMS7003;59641;45.188;5.712;2023-02-20T02:01:05;17.50;15.75;12.50
71794;PMS7003;59641;45.188;5.712;2023-02-20T02:03:32;19.50;18.25;12.50
71794;PMS7003;59641;45.188;5.712;2023-02-20T02:06:05;15.50;15.50;11.50
71794;PMS7003;59641;45.188;5.712;2023-02-20T02:08:32;9.50;8.50;5.50
71794;PMS7003;59641;45.188;5.712;2023-02-20T02:11:21;14.50;13.75;12.50
71794;PMS7003;59641;45.188;5.712;2023-02-20T02:13:48;16.00;14.50;11.50
71794;PMS7003;59641;45.188;5.712;2023-02-20T02:22:12;15.50;13.75;11.50
71794;PMS7003;59641;45.188;5.712;2023-02-20T02:27:51;15.00;15.00;10.75
71794;PMS7003;59641;45.188;5.712;2023-02-20T02:35:54;15.75;15.75;11.00
71794;PMS7003;59641;45.188;5.712;2023-02-20T02:41:07;16.00;16.00;12.00
71794;PMS7003;59641;45.188;5.712;2023-02-20T02:44:11;17.75;17.75;12.50
71794;PMS7003;59641;45.188;5.712;2023-02-20T02:46:38;15.25;15.25;12.25
71794;PMS7003;59641;45.188;5.712;2023-02-20T02:49:16;17.50;16.25;13.25
71794;PMS7003;59641;45.188;5.712;2023-02-20T02:51:42;19.50;19.50;14.00
71794;PMS7003;59641;45.188;5.712;2023-02-20T02:56:46;17.50;15.50;12.50
71794;PMS7003;59641;45.188;5.712;2023-02-20T02:59:33;16.75;16.75;13.75
71794;PMS7003;59641;45.188;5.712;2023-02-20T03:01:58;17.25;17.00;14.50
71794;PMS7003;59641;45.188;5.712;2023-02-20T03:04:27;15.50;15.50;12.50
71794;PMS7003;59641;45.188;5.712;2023-02-20T03:06:57;17.25;15.00;13.00
71794;PMS7003;59641;45.188;5.712;2023-02-20T03:09:29;17.75;16.50;11.50
71794;PMS7003;59641;45.188;5.712;2023-02-20T03:11:59;22.25;21.25;14.75
71794;PMS7003;59641;45.188;5.712;2023-02-20T03:14:29;16.25;15.50;12.50
71794;PMS7003;59641;45.188;5.712;2023-02-20T03:17:34;16.67;16.67;12.67
71794;PMS7003;59641;45.188;5.712;2023-02-20T03:20:10;15.00;15.00;12.00
71794;PMS7003;59641;45.188;5.712;2023-02-20T03:22:41;18.50;16.75;14.00
71794;PMS7003;59641;45.188;5.712;2023-02-20T03:25:12;14.00;13.25;12.00
71794;PMS7003;59641;45.188;5.712;2023-02-20T03:27:49;12.75;11.25;9.50
71794;PMS7003;59641;45.188;5.712;2023-02-20T03:30:23;14.75;12.00;10.50
71794;PMS7003;59641;45.188;5.712;2023-02-20T03:33:13;17.50;16.75;13.00
71794;PMS7003;59641;45.188;5.712;2023-02-20T03:36:03;16.25;14.75;12.00
71794;PMS7003;59641;45.188;5.712;2023-02-20T03:38:52;15.25;14.00;10.50
71794;PMS7003;59641;45.188;5.712;2023-02-20T03:41:43;20.00;19.00;13.50
71794;PMS7003;59641;45.188;5.712;2023-02-20T03:44:31;12.00;12.00;11.25
71794;PMS7003;59641;45.188;5.712;2023-02-20T03:46:58;18.75;17.50;12.50
71794;PMS7003;59641;45.188;5.712;2023-02-20T03:49:27;17.75;15.75;10.75
71794;PMS7003;59641;45.188;5.712;2023-02-20T03:51:58;20.25;20.25;14.00
71794;PMS7003;59641;45.188;5.712;2023-02-20T03:54:24;18.75;17.75;14.00
71794;PMS7003;59641;45.188;5.712;2023-02-20T03:59:59;18.00;16.50;14.00
71794;PMS7003;59641;45.188;5.712;2023-02-20T04:02:30;19.75;17.75;12.75
71794;PMS7003;59641;45.188;5.712;2023-02-20T04:05:02;16.00;15.75;11.75
71794;PMS7003;59641;45.188;5.712;2023-02-20T04:08:14;16.50;16.50;13.25
71794;PMS7003;59641;45.188;5.712;2023-02-20T04:10:42;17.00;16.00;13.00
71794;PMS7003;59641;45.188;5.712;2023-02-20T04:13:13;17.00;15.75;12.50
71794;PMS7003;59641;45.188;5.712;2023-02-20T04:15:40;16.00;15.50;10.00
71794;PMS7003;59641;45.188;5.712;2023-02-20T04:18:08;16.50;14.25;10.75
71794;PMS7003;59641;45.188;5.712;2023-02-20T04:20:37;15.75;15.75;12.75
71794;PMS7003;59641;45.188;5.712;2023-02-20T04:23:06;18.00;16.50;11.75
71794;PMS7003;59641;45.188;5.712;2023-02-20T04:28:14;18.00;16.00;12.00
71794;PMS7003;59641;45.188;5.712;2023-02-20T04:30:41;14.50;13.00;11.00
71794;PMS7003;59641;45.188;5.712;2023-02-20T04:33:09;15.50;15.50;13.00
71794;PMS7003;59641;45.188;5.712;2023-02-20T04:35:37;16.25;16.00;12.00
71794;PMS7003;59641;45.188;5.712;2023-02-20T04:38:03;16.00;15.00;11.00
71794;PMS7003;59641;45.188;5.712;2023-02-20T04:40:28;14.25;13.50;10.00
71794;PMS7003;59641;45.188;5.712;2023-02-20T04:42:54;15.50;15.50;12.00
71794;PMS7003;59641;45.188;5.712;2023-02-20T04:45:19;18.50;18.25;13.50
71794;PMS7003;59641;45.188;5.712;2023-02-20T04:47:45;16.00;16.00;10.00
71794;PMS7003;59641;45.188;5.712;2023-02-20T04:50:24;18.25;18.25;13.75
71794;PMS7003;59641;45.188;5.712;2023-02-20T04:52:54;16.50;16.50;13.00
71794;PMS7003;59641;45.188;5.712;2023-02-20T04:55:21;14.75;13.25;9.50
71794;PMS7003;59641;45.188;5.712;2023-02-20T04:57:46;17.33;17.33;13.00
71794;PMS7003;59641;45.188;5.712;2023-02-20T05:00:13;11.00;11.00;7.00
71794;PMS7003;59641;45.188;5.712;2023-02-20T05:02:40;15.50;15.25;11.75
71794;PMS7003;59641;45.188;5.712;2023-02-20T05:05:09;14.00;14.00;11.00
71794;PMS7003;59641;45.188;5.712;2023-02-20T05:07:40;19.00;16.50;13.00
71794;PMS7003;59641;45.188;5.712;2023-02-20T05:10:06;15.00;15.00;12.50
71794;PMS7003;59641;45.188;5.712;2023-02-20T05:12:31;15.50;14.50;11.50
71794;PMS7003;59641;45.188;5.712;2023-02-20T05:14:57;15.00;15.00;12.00
71794;PMS7003;59641;45.188;5.712;2023-02-20T05:17:22;14.75;14.50;11.25
71794;PMS7003;59641;45.188;5.712;2023-02-20T05:19:47;19.50;19.00;13.00
71794;PMS7003;59641;45.188;5.712;2023-02-20T05:22:13;16.50;16.00;13.00
71794;PMS7003;59641;45.188;5.712;2023-02-20T05:24:45;16.00;14.00;11.25
71794;PMS7003;59641;45.188;5.712;2023-02-20T05:27:13;15.25;15.00;12.25
71794;PMS7003;59641;45.188;5.712;2023-02-20T05:29:52;18.50;17.00;13.25
71794;PMS7003;59641;45.188;5.712;2023-02-20T05:32:20;21.75;18.00;12.00
71794;PMS7003;59641;45.188;5.712;2023-02-20T05:34:47;15.00;15.00;11.75
71794;PMS7003;59641;45.188;5.712;2023-02-20T05:37:13;18.00;16.75;13.75
71794;PMS7003;59641;45.188;5.712;2023-02-20T05:39:40;17.00;15.25;11.75
71794;PMS7003;59641;45.188;5.712;2023-02-20T05:42:05;15.75;15.75;13.00
71794;PMS7003;59641;45.188;5.712;2023-02-20T05:44:31;18.75;18.25;12.75
71794;PMS7003;59641;45.188;5.712;2023-02-20T05:46:57;16.00;16.00;13.00
71794;PMS7003;59641;45.188;5.712;2023-02-20T05:49:22;17.00;16.50;12.75
71794;PMS7003;59641;45.188;5.712;2023-02-20T05:51:49;15.00;15.00;10.00
71794;PMS7003;59641;45.188;5.712;2023-02-20T05:54:16;15.75;15.75;12.00
71794;PMS7003;59641;45.188;5.712;2023-02-20T05:56:43;14.00;13.00;10.00
71794;PMS7003;59641;45.188;5.712;2023-02-20T05:59:10;16.00;15.75;12.50
71794;PMS7003;59641;45.188;5.712;2023-02-20T06:01:37;15.75;15.75;11.75
71794;PMS7003;59641;45.188;5.712;2023-02-20T06:04:02;12.00;12.00;9.50
71794;PMS7003;59641;45.188;5.712;2023-02-20T06:06:35;14.75;14.25;12.25
71794;PMS7003;59641;45.188;5.712;2023-02-20T06:09:06;16.00;16.00;11.50
71794;PMS7003;59641;45.188;5.712;2023-02-20T06:11:34;12.00;11.25;9.00
71794;PMS7003;59641;45.188;5.712;2023-02-20T06:14:00;12.50;12.50;9.00
71794;PMS7003;59641;45.188;5.712;2023-02-20T06:16:26;18.50;15.50;10.00
71794;PMS7003;59641;45.188;5.712;2023-02-20T06:18:53;12.75;12.50;10.75
71794;PMS7003;59641;45.188;5.712;2023-02-20T06:21:20;12.50;11.25;7.25
71794;PMS7003;59641;45.188;5.712;2023-02-20T06:23:47;13.25;13.25;11.00
71794;PMS7003;59641;45.188;5.712;2023-02-20T06:26:14;14.00;14.00;11.00
71794;PMS7003;59641;45.188;5.712;2023-02-20T06:28:40;17.75;15.00;12.25
71794;PMS7003;59641;45.188;5.712;2023-02-20T06:31:06;15.25;13.00;10.00
71794;PMS7003;59641;45.188;5.712;2023-02-20T06:33:32;18.50;17.50;13.00
71794;PMS7003;59641;45.188;5.712;2023-02-20T06:35:57;18.75;16.50;12.00
71794;PMS7003;59641;45.188;5.712;2023-02-20T06:38:23;15.75;15.00;11.00
71794;PMS7003;59641;45.188;5.712;2023-02-20T06:40:50;13.50;13.50;10.50
71794;PMS7003;59641;45.188;5.712;2023-02-20T06:43:15;13.00;13.00;9.00
71794;PMS7003;59641;45.188;5.712;2023-02-20T06:45:41;13.25;13.25;10.25
71794;PMS7003;59641;45.188;5.712;2023-02-20T06:48:06;12.50;11.25;9.75
71794;PMS7003;59641;45.188;5.712;2023-02-20T06:50:32;16.75;14.75;11.00
71794;PMS7003;59641;45.188;5.712;2023-02-20T06:52:57;17.00;16.00;12.00
71794;PMS7003;59641;45.188;5.712;2023-02-20T06:55:22;16.00;14.00;11.00
71794;PMS7003;59641;45.188;5.712;2023-02-20T06:57:48;16.00;15.00;11.00
71794;PMS7003;59641;45.188;5.712;2023-02-20T07:00:13;17.25;17.25;11.75
71794;PMS7003;59641;45.188;5.712;2023-02-20T07:02:40;13.75;13.50;11.00
71794;PMS7003;59641;45.188;5.712;2023-02-20T07:05:05;16.00;15.00;12.00
71794;PMS7003;59641;45.188;5.712;2023-02-20T07:07:33;14.50;14.00;11.50
71794;PMS7003;59641;45.188;5.712;2023-02-20T07:09:58;12.00;10.50;10.25
71794;PMS7003;59641;45.188;5.712;2023-02-20T07:12:28;15.75;15.50;10.25
71794;PMS7003;59641;45.188;5.712;2023-02-20T07:14:55;17.50;14.25;10.50
71794;PMS7003;59641;45.188;5.712;2023-02-20T07:17:20;14.00;14.00;11.50
71794;PMS7003;59641;45.188;5.712;2023-02-20T07:19:46;16.75;16.75;12.00
71794;PMS7003;59641;45.188;5.712;2023-02-20T07:22:11;15.00;14.25;11.00
71794;PMS7003;59641;45.188;5.712;2023-02-20T07:24:36;10.75;10.75;9.25
71794;PMS7003;59641;45.188;5.712;2023-02-20T07:27:02;15.50;12.75;10.00
71794;PMS7003;59641;45.188;5.712;2023-02-20T07:29:27;16.67;15.00;12.33
71794;PMS7003;59641;45.188;5.712;2023-02-20T07:31:53;15.75;14.25;11.00
71794;PMS7003;59641;45.188;5.712;2023-02-20T07:34:18;12.50;12.50;9.25
71794;PMS7003;59641;45.188;5.712;2023-02-20T07:36:43;19.67;16.33;12.00
71794;PMS7003;59641;45.188;5.712;2023-02-20T07:39:09;13.00;12.25;9.00
71794;PMS7003;59641;45.188;5.712;2023-02-20T07:41:37;15.50;14.25;10.25
71794;PMS7003;59641;45.188;5.712;2023-02-20T07:44:03;13.00;13.00;11.00
71794;PMS7003;59641;45.188;5.712;2023-02-20T07:46:29;14.50;13.75;10.50
71794;PMS7003;59641;45.188;5.712;2023-02-20T07:48:58;14.50;14.25;10.00
71794;PMS7003;59641;45.188;5.712;2023-02-20T07:51:24;11.00;11.00;9.00
71794;PMS7003;59641;45.188;5.712;2023-02-20T07:53:50;13.00;13.00;10.25
71794;PMS7003;59641;45.188;5.712;2023-02-20T07:56:18;15.50;14.00;10.00
71794;PMS7003;59641;45.188;5.712;2023-02-20T07:58:45;14.75;14.75;10.00
71794;PMS7003;59641;45.188;5.712;2023-02-20T08:01:11;13.50;13.00;9.75
71794;PMS7003;59641;45.188;5.712;2023-02-20T08:03:36;15.25;15.00;10.00
71794;PMS7003;59641;45.188;5.712;2023-02-20T08:06:01;14.25;11.50;8.25
71794;PMS7003;59641;45.188;5.712;2023-02-20T08:08:27;19.75;15.50;11.25
71794;PMS7003;59641;45.188;5.712;2023-02-20T08:10:52;15.00;15.00;10.50
71794;PMS7003;59641;45.188;5.712;2023-02-20T08:13:18;15.50;14.00;11.00
71794;PMS7003;59641;45.188;5.712;2023-02-20T08:15:44;13.00;13.00;10.33
71794;PMS7003;59641;45.188;5.712;2023-02-20T08:18:09;13.25;13.25;10.00
71794;PMS7003;59641;45.188;5.712;2023-02-20T08:20:35;14.00;14.00;9.75
71794;PMS7003;59641;45.188;5.712;2023-02-20T08:23:00;13.25;13.25;10.25
71794;PMS7003;59641;45.188;5.712;2023-02-20T08:25:29;17.50;15.25;11.00
71794;PMS7003;59641;45.188;5.712;2023-02-20T08:27:55;16.00;15.33;11.00
71794;PMS7003;59641;45.188;5.712;2023-02-20T08:30:23;16.50;14.50;11.25
71794;PMS7003;59641;45.188;5.712;2023-02-20T08:32:51;14.50;14.50;11.00
71794;PMS7003;59641;45.188;5.712;2023-02-20T08:35:17;17.00;15.25;12.00
71794;PMS7003;59641;45.188;5.712;2023-02-20T08:37:43;13.25;13.25;11.00
71794;PMS7003;59641;45.188;5.712;2023-02-20T08:40:09;18.00;17.00;11.00
71794;PMS7003;59641;45.188;5.712;2023-02-20T08:42:35;17.75;15.00;10.25
71794;PMS7003;59641;45.188;5.712;2023-02-20T08:45:02;16.00;14.00;11.00
71794;PMS7003;59641;45.188;5.712;2023-02-20T08:47:29;19.00;17.75;13.50
71794;PMS7003;59641;45.188;5.712;2023-02-20T08:49:55;19.50;17.50;12.50
71794;PMS7003;59641;45.188;5.712;2023-02-20T08:52:20;14.00;14.00;12.00
71794;PMS7003;59641;45.188;5.712;2023-02-20T08:54:46;18.75;18.00;12.25
71794;PMS7003;59641;45.188;5.712;2023-02-20T08:57:12;16.50;15.50;11.50
71794;PMS7003;59641;45.188;5.712;2023-02-20T08:59:39;17.50;17.50;13.00
71794;PMS7003;59641;45.188;5.712;2023-02-20T09:02:04;17.25;15.75;12.00
71794;PMS7003;59641;45.188;5.712;2023-02-20T09:04:31;20.75;19.50;14.25
71794;PMS7003;59641;45.188;5.712;2023-02-20T09:06:56;17.00;15.00;11.25
71794;PMS7003;59641;45.188;5.712;2023-02-20T09:09:22;16.75;16.25;12.00
71794;PMS7003;59641;45.188;5.712;2023-02-20T09:11:47;17.00;14.00;13.00
71794;PMS7003;59641;45.188;5.712;2023-02-20T09:14:12;17.25;16.00;11.25
71794;PMS7003;59641;45.188;5.712;2023-02-20T09:16:38;20.00;19.00;13.25
71794;PMS7003;59641;45.188;5.712;2023-02-20T09:19:06;20.25;17.25;13.00
71794;PMS7003;59641;45.188;5.712;2023-02-20T09:21:32;17.75;15.50;12.00
71794;PMS7003;59641;45.188;5.712;2023-02-20T09:23:58;18.25;17.25;12.00
71794;PMS7003;59641;45.188;5.712;2023-02-20T09:26:24;18.25;14.00;11.00
71794;PMS7003;59641;45.188;5.712;2023-02-20T09:28:49;17.25;14.25;11.00
71794;PMS7003;59641;45.188;5.712;2023-02-20T09:31:14;21.00;18.25;13.00
71794;PMS7003;59641;45.188;5.712;2023-02-20T09:33:43;19.75;18.75;14.00
71794;PMS7003;59641;45.188;5.712;2023-02-20T09:36:09;20.25;16.25;12.50
71794;PMS7003;59641;45.188;5.712;2023-02-20T09:38:34;20.50;20.25;15.00
71794;PMS7003;59641;45.188;5.712;2023-02-20T09:41:00;18.50;16.75;13.50
71794;PMS7003;59641;45.188;5.712;2023-02-20T09:43:46;20.25;15.75;13.00
71794;PMS7003;59641;45.188;5.712;2023-02-20T09:46:21;17.50;17.25;12.25
71794;PMS7003;59641;45.188;5.712;2023-02-20T09:51:32;15.00;15.00;11.75
71794;PMS7003;59641;45.188;5.712;2023-02-20T09:54:07;19.75;19.75;15.50
71794;PMS7003;59641;45.188;5.712;2023-02-20T09:56:35;21.00;17.25;13.00
71794;PMS7003;59641;45.188;5.712;2023-02-20T09:59:15;18.25;17.50;12.25
71794;PMS7003;59641;45.188;5.712;2023-02-20T10:04:47;17.25;16.50;12.00
71794;PMS7003;59641;45.188;5.712;2023-02-20T10:07:20;16.75;14.25;12.00
71794;PMS7003;59641;45.188;5.712;2023-02-20T10:09:49;16.00;14.50;11.00
71794;PMS7003;59641;45.188;5.712;2023-02-20T10:15:00;17.00;16.25;13.25
71794;PMS7003;59641;45.188;5.712;2023-02-20T10:23:27;15.75;15.00;12.00
71794;PMS7003;59641;45.188;5.712;2023-02-20T10:25:57;15.00;15.00;12.00
71794;PMS7003;59641;45.188;5.712;2023-02-20T10:28:27;16.25;15.00;12.00
71794;PMS7003;59641;45.188;5.712;2023-02-20T10:36:18;14.75;14.75;10.50
71794;PMS7003;59641;45.188;5.712;2023-02-20T10:39:06;11.75;11.75;9.50
71794;PMS7003;59641;45.188;5.712;2023-02-20T10:41:41;17.75;16.00;13.00
71794;PMS7003;59641;45.188;5.712;2023-02-20T10:44:20;14.00;14.00;10.75
71794;PMS7003;59641;45.188;5.712;2023-02-20T10:50:21;14.50;13.25;9.50
71794;PMS7003;59641;45.188;5.712;2023-02-20T10:52:24;16.50;16.00;10.75
71794;PMS7003;59641;45.188;5.712;2023-02-20T10:54:54;13.75;12.25;10.25
71794;PMS7003;59641;45.188;5.712;2023-02-20T10:57:33;14.00;14.00;9.00
71794;PMS7003;59641;45.188;5.712;2023-02-20T11:00:10;13.75;13.75;10.75
71794;PMS7003;59641;45.188;5.712;2023-02-20T11:02:40;13.50;13.50;9.25
71794;PMS7003;59641;45.188;5.712;2023-02-20T11:05:18;15.00;15.00;12.00
71794;PMS7003;59641;45.188;5.712;2023-02-20T11:07:47;17.50;14.00;10.75
71794;PMS7003;59641;45.188;5.712;2023-02-20T11:10:13;17.25;16.25;10.75
71794;PMS7003;59641;45.188;5.712;2023-02-20T11:12:49;15.25;14.75;11.00
71794;PMS7003;59641;45.188;5.712;2023-02-20T11:15:17;12.75;12.75;9.75
71794;PMS7003;59641;45.188;5.712;2023-02-20T11:17:48;12.75;12.50;9.00
71794;PMS7003;59641;45.188;5.712;2023-02-20T11:22:57;15.25;14.25;9.50
71794;PMS7003;59641;45.188;5.712;2023-02-20T11:25:32;18.75;18.75;15.00
71794;PMS7003;59641;45.188;5.712;2023-02-20T11:27:59;18.25;18.25;13.50
71794;PMS7003;59641;45.188;5.712;2023-02-20T11:30:49;18.75;17.00;11.75
71794;PMS7003;59641;45.188;5.712;2023-02-20T11:33:25;14.75;14.75;11.50
71794;PMS7003;59641;45.188;5.712;2023-02-20T11:35:57;13.50;13.50;10.25
71794;PMS7003;59641;45.188;5.712;2023-02-20T11:38:34;12.00;12.00;9.00
71794;PMS7003;59641;45.188;5.712;2023-02-20T11:43:39;10.75;10.75;9.00
71794;PMS7003;59641;45.188;5.712;2023-02-20T11:46:10;11.25;11.25;9.00
71794;PMS7003;59641;45.188;5.712;2023-02-20T11:48:37;15.00;15.00;10.75
71794;PMS7003;59641;45.188;5.712;2023-02-20T11:51:43;11.00;10.75;9.00
71794;PMS7003;59641;45.188;5.712;2023-02-20T11:54:15;6.20;6.20;4.60
71794;PMS7003;59641;45.188;5.712;2023-02-20T12:02:39;14.40;13.60;10.00
71794;PMS7003;59641;45.188;5.712;2023-02-20T12:05:16;11.50;11.50;9.25
71794;PMS7003;59641;45.188;5.712;2023-02-20T12:13:06;12.00;12.00;9.00
71794;PMS7003;59641;45.188;5.712;2023-02-20T12:15:36;12.60;11.80;7.80
71794;PMS7003;59641;45.188;5.712;2023-02-20T12:20:30;16.50;15.75;12.00
71794;PMS7003;59641;45.188;5.712;2023-02-20T12:29:18;12.75;11.50;7.25
71794;PMS7003;59641;45.188;5.712;2023-02-20T12:31:47;13.50;12.00;10.00
71794;PMS7003;59641;45.188;5.712;2023-02-20T12:37:08;12.50;11.50;8.50
71794;PMS7003;59641;45.188;5.712;2023-02-20T12:47:43;12.25;12.25;8.00
71794;PMS7003;59641;45.188;5.712;2023-02-20T13:00:50;10.50;10.50;6.25
71794;PMS7003;59641;45.188;5.712;2023-02-20T13:03:34;10.75;10.50;8.50
71794;PMS7003;59641;45.188;5.712;2023-02-20T13:06:24;6.00;6.00;6.00
71794;PMS7003;59641;45.188;5.712;2023-02-20T13:12:02;8.00;8.00;6.50
71794;PMS7003;59641;45.188;5.712;2023-02-20T13:20:24;8.00;8.00;6.00
71794;PMS7003;59641;45.188;5.712;2023-02-20T13:23:02;6.00;6.00;4.50
71794;PMS7003;59641;45.188;5.712;2023-02-20T13:25:50;6.50;6.25;5.25
71794;PMS7003;59641;45.188;5.712;2023-02-20T13:28:24;6.80;5.60;4.00
71794;PMS7003;59641;45.188;5.712;2023-02-20T13:31:09;6.60;6.60;5.00
71794;PMS7003;59641;45.188;5.712;2023-02-20T13:33:44;6.00;6.00;4.25
71794;PMS7003;59641;45.188;5.712;2023-02-20T13:36:16;7.00;5.25;4.50
71794;PMS7003;59641;45.188;5.712;2023-02-20T13:38:42;7.20;7.20;4.80
71794;PMS7003;59641;45.188;5.712;2023-02-20T13:47:00;7.25;5.25;4.75
71794;PMS7003;59641;45.188;5.712;2023-02-20T14:02:58;8.00;6.40;5.60
71794;PMS7003;59641;45.188;5.712;2023-02-20T14:05:25;6.00;5.75;5.00
71794;PMS7003;59641;45.188;5.712;2023-02-20T14:07:56;6.25;6.25;5.00
71794;PMS7003;59641;45.188;5.712;2023-02-20T14:10:29;6.00;6.00;5.00
71794;PMS7003;59641;45.188;5.712;2023-02-20T14:13:04;6.25;6.00;5.00
71794;PMS7003;59641;45.188;5.712;2023-02-20T14:15:49;5.60;4.60;4.00
71794;PMS7003;59641;45.188;5.712;2023-02-20T14:18:17;7.50;7.00;5.00
71794;PMS7003;59641;45.188;5.712;2023-02-20T14:20:44;9.00;7.00;5.00
71794;PMS7003;59641;45.188;5.712;2023-02-20T14:23:18;6.50;5.75;4.00
71794;PMS7003;59641;45.188;5.712;2023-02-20T14:26:01;5.75;5.75;5.00
71794;PMS7003;59641;45.188;5.712;2023-02-20T14:28:32;7.00;7.00;5.00
71794;PMS7003;59641;45.188;5.712;2023-02-20T14:31:20;9.40;6.40;5.00
71794;PMS7003;59641;45.188;5.712;2023-02-20T14:33:46;5.00;5.00;4.00
71794;PMS7003;59641;45.188;5.712;2023-02-20T14:36:33;6.00;6.00;5.25
71794;PMS7003;59641;45.188;5.712;2023-02-20T14:39:18;7.00;7.00;5.50
71794;PMS7003;59641;45.188;5.712;2023-02-20T14:41:58;5.60;5.60;4.40
71794;PMS7003;59641;45.188;5.712;2023-02-20T14:44:26;8.20;7.00;5.00
71794;PMS7003;59641;45.188;5.712;2023-02-20T14:46:54;5.00;4.00;3.60
71794;PMS7003;59641;45.188;5.712;2023-02-20T14:49:28;6.75;6.75;5.00
71794;PMS7003;59641;45.188;5.712;2023-02-20T14:54:39;5.00;5.00;4.00
71794;PMS7003;59641;45.188;5.712;2023-02-20T14:57:07;6.50;4.50;4.00
71794;PMS7003;59641;45.188;5.712;2023-02-20T14:59:39;6.80;6.40;4.80
71794;PMS7003;59641;45.188;5.712;2023-02-20T15:02:19;5.20;5.00;4.00
71794;PMS7003;59641;45.188;5.712;2023-02-20T15:04:53;4.80;4.80;3.60
71794;PMS7003;59641;45.188;5.712;2023-02-20T15:07:33;5.60;5.00;4.00
71794;PMS7003;59641;45.188;5.712;2023-02-20T15:09:59;3.20;3.20;3.00
71794;PMS7003;59641;45.188;5.712;2023-02-20T15:12:32;4.80;4.80;3.40
71794;PMS7003;59641;45.188;5.712;2023-02-20T15:15:03;9.20;5.40;3.80
71794;PMS7003;59641;45.188;5.712;2023-02-20T15:17:32;4.40;4.00;3.00
71794;PMS7003;59641;45.188;5.712;2023-02-20T15:19:59;6.00;4.75;4.00
71794;PMS7003;59641;45.188;5.712;2023-02-20T15:22:30;4.00;4.00;3.80
71794;PMS7003;59641;45.188;5.712;2023-02-20T15:25:10;4.20;4.20;3.60
71794;PMS7003;59641;45.188;5.712;2023-02-20T15:30:29;4.00;4.00;2.20
71794;PMS7003;59641;45.188;5.712;2023-02-20T15:32:54;3.00;3.00;1.25
71794;PMS7003;59641;45.188;5.712;2023-02-20T15:35:23;4.00;4.00;3.20
71794;PMS7003;59641;45.188;5.712;2023-02-20T15:37:53;5.50;5.50;4.00
71794;PMS7003;59641;45.188;5.712;2023-02-20T15:40:25;4.20;4.20;3.00
71794;PMS7003;59641;45.188;5.712;2023-02-20T15:42:53;5.80;5.40;4.20
71794;PMS7003;59641;45.188;5.712;2023-02-20T15:45:26;4.60;4.20;2.80
71794;PMS7003;59641;45.188;5.712;2023-02-20T15:47:53;6.00;5.00;4.40
71794;PMS7003;59641;45.188;5.712;2023-02-20T15:50:19;6.00;5.00;4.50
71794;PMS7003;59641;45.188;5.712;2023-02-20T15:52:45;4.00;4.00;4.00
71794;PMS7003;59641;45.188;5.712;2023-02-20T15:55:15;4.80;4.40;3.60
71794;PMS7003;59641;45.188;5.712;2023-02-20T15:57:43;6.00;5.40;4.00
71794;PMS7003;59641;45.188;5.712;2023-02-20T16:00:16;6.00;5.20;3.80
71794;PMS7003;59641;45.188;5.712;2023-02-20T16:02:46;3.60;3.60;2.60
71794;PMS7003;59641;45.188;5.712;2023-02-20T16:05:11;3.00;2.75;2.00
71794;PMS7003;59641;45.188;5.712;2023-02-20T16:07:37;5.50;4.50;3.25
71794;PMS7003;59641;45.188;5.712;2023-02-20T16:10:02;2.50;2.50;2.00
71794;PMS7003;59641;45.188;5.712;2023-02-20T16:12:28;8.60;8.60;6.80
71794;PMS7003;59641;45.188;5.712;2023-02-20T16:14:57;8.00;8.00;6.00
71794;PMS7003;59641;45.188;5.712;2023-02-20T16:17:24;5.00;5.00;5.00
71794;PMS7003;59641;45.188;5.712;2023-02-20T16:19:51;5.50;5.25;4.25